Αρχική σελίδα
METAR-TAF:

METAR-TAF

Αεροδρόμια :

Κουρασάο, Ολλανδικές Αντίλλες

γεωγραφικό πλάτος: 12-12N, γεωγραφικό μήκος: 068-58W, υψόμετρο: 9 μ

Παρών καιρός

Η αναφορά έγινε 49 λεπτά πριν, στις 12:00 UTC
Άνεμος 9 kt από Α
Θερμοκρασία 26°C
Υγρασία 74%
Πίεση 1014 hPa
Ορατότητα 10 χλμ και άνω
Λίγα νέφη σε ύψος 1800 πόδια

METAR: TNCC 221200Z 10009KT 9999 FEW018 26/21 Q1014 NOSIG

Χρόνος: 08:49 (12:49 UTC)

Πρόγνωση Καιρού

Η αναφορά έγινε 3 ώρες και 19 λεπτά πριν, στις 09:30 UTC
Η πρόγνωση ισχύει από τις 22 στις 12 UTC έως τις 23 στις 12 UTC
Άνεμος 10 kt από Α
Ορατότητα 10 χλμ και άνω
Διάσπαρτα νέφη σε ύψος 2000 πόδια

TAF: TNCC 220930Z 2212/2312 10010KT 9999 SCT020

Μετεωρολογικές αναφορές και προγνώσεις για περισσότερα από 4000 αεροδρόμια (δελτία METAR και TAF).

Οι διαθέσιμοι σταθμοί απεικονίζονται στο χάρτη με κίτρινες και κόκκινες κουκκίδες.

Μετακινήστε το ποντίκι πάνω από τις κουκκίδες για να δείτε το όνομα του σταθμού.

Στη συνέχεια, κάντε κλικ για να δείτε τις μετεωρολογικές αναφορές και τις προγνώσεις καιρού.

Για να αλλάξετε το χάρτη: κάντε κλικ στα πράσινα κουμπιά με τον μαύρο σταυρό για να ζουμάρετε, στο πράσινο κουμπί με την παύλα για να αφαιρέσετε το ζουμ ή στα πράσινα βέλη για να αντιπαραβάλλετε χάρτες.


METAR-TAF: